Sutcliffe, Nevada
Current Conditions -  °F | °C
As of 6:35 AM on Thursday 30 Oct 2014 (Local Time) from KRTS Reporting Station
Clear Clear  
Wind Chill: 32°   Ceiling: Unl
Heat Index: 32°   Visibility: 10mi
Dew Point: 25°   Wind: 3mph
Humidity: 75%   Direction: 350°N
Pressure: 30.14"   Gusts: NA
Location:  39.8171°N, 119.63°W
Report Text: KRTS 301335Z AUTO 35003KT 10SM CLR 00/M04 A3014 RMK AO2
Loading
Personal Weather Stations






























Interactive Weather Map New forecast layout! Learn more

10-Day Weather Forecast

Advertisements
Track Severe Weather on mobile